Time;durP1;ratioP1;P1;durP2;ratioP2;P2;SDS_P1;SDS_P2;PMS_P1;PMS_P2;Temp;Humidity;BMP_temperature;BMP_pressure;BME280_temperature;BME280_humidity;BME280_pressure;Samples;Min_cycle;Max_cycle;Signal;HPM_P1;HPM_P2
2022/04/24 00:01:49;;;;;;;2.00;0.32;;;;;;;7.97;60.49;101548.97;4909933;29;20051;-82
2022/04/24 00:04:15;;;;;;;1.20;0.30;;;;;;;8.11;60.23;101571.59;4880810;29;20036;-82
2022/04/24 00:06:41;;;;;;;0.80;0.30;;;;;;;8.05;60.91;101580.34;4900280;29;20025;-81
2022/04/24 00:09:07;;;;;;;2.10;0.30;;;;;;;7.99;60.69;101579.13;4895192;29;20041;-81
2022/04/24 00:11:32;;;;;;;0.70;0.30;;;;;;;7.82;60.84;101547.94;4893004;29;20060;-81
2022/04/24 00:13:58;;;;;;;0.60;0.20;;;;;;;7.93;61.39;101582.47;4892158;29;20049;-82
2022/04/24 00:16:24;;;;;;;0.40;0.20;;;;;;;7.86;61.61;101576.06;4892995;29;20033;-81
2022/04/24 00:18:49;;;;;;;1.58;0.30;;;;;;;7.73;61.56;101560.44;4890693;29;20036;-82
2022/04/24 00:21:14;;;;;;;0.35;0.20;;;;;;;7.73;61.75;101561.28;4895850;29;20028;-82
2022/04/24 00:23:40;;;;;;;3.05;0.30;;;;;;;7.45;61.51;101509.81;4911668;29;20455;-82
2022/04/24 00:26:05;;;;;;;0.40;0.20;;;;;;;7.71;61.67;101565.94;4909064;29;20108;-81
2022/04/24 00:28:31;;;;;;;0.68;0.30;;;;;;;7.67;61.80;101569.13;4908887;29;20032;-82
2022/04/24 00:30:56;;;;;;;1.23;0.20;;;;;;;7.66;61.59;101581.69;4892486;29;20085;-82
2022/04/24 00:33:22;;;;;;;1.63;0.20;;;;;;;7.56;61.58;101553.34;4889502;29;20116;-80
2022/04/24 00:35:47;;;;;;;0.65;0.30;;;;;;;7.62;61.49;101577.66;4890162;29;20029;-80
2022/04/24 00:38:13;;;;;;;0.55;0.20;;;;;;;7.55;61.19;101563.25;4897904;29;20360;-82
2022/04/24 00:40:38;;;;;;;1.45;0.10;;;;;;;7.59;61.55;101569.94;4874967;29;20033;-81
2022/04/24 00:43:03;;;;;;;0.52;0.20;;;;;;;7.55;61.62;101568.59;4891404;29;20041;-82
2022/04/24 00:45:29;;;;;;;2.63;0.13;;;;;;;7.52;61.26;101569.75;4891924;29;20059;-82
2022/04/24 00:47:56;;;;;;;0.80;0.20;;;;;;;7.54;61.45;101570.41;4889258;29;20048;-80
2022/04/24 00:50:21;;;;;;;1.80;0.20;;;;;;;7.41;61.82;101556.63;4890120;29;20417;-82
2022/04/24 00:52:47;;;;;;;0.40;0.20;;;;;;;7.49;61.78;101567.38;4891276;29;20057;-81
2022/04/24 00:55:12;;;;;;;0.68;0.30;;;;;;;7.41;62.22;101551.25;4889882;29;20128;-81
2022/04/24 00:57:41;;;;;;;0.38;0.20;;;;;;;7.32;62.31;101528.16;4904560;29;20025;-82
2022/04/24 01:00:08;;;;;;;1.63;0.30;;;;;;;7.46;62.35;101551.63;4898189;29;20024;-80
2022/04/24 01:02:33;;;;;;;0.77;0.20;;;;;;;7.24;62.24;101525.41;4894140;29;20035;-82
2022/04/24 01:04:59;;;;;;;0.17;0.10;;;;;;;7.25;62.34;101527.97;4890423;29;20048;-82
2022/04/24 01:07:25;;;;;;;0.80;0.20;;;;;;;7.47;62.65;101544.44;4905962;29;20033;-81
2022/04/24 01:09:51;;;;;;;1.35;0.20;;;;;;;7.44;63.10;101548.28;4907245;29;20539;-80
2022/04/24 01:12:16;;;;;;;0.32;0.20;;;;;;;7.24;63.76;101549.50;4891269;29;20057;-82
2022/04/24 01:14:41;;;;;;;0.65;0.20;;;;;;;7.11;63.58;101522.34;4889714;29;20052;-81
2022/04/24 01:17:07;;;;;;;0.90;0.20;;;;;;;7.20;63.63;101522.22;4887697;29;20047;-82
2022/04/24 01:19:33;;;;;;;0.80;0.20;;;;;;;7.38;63.70;101550.75;4906614;29;20092;-81
2022/04/24 01:21:58;;;;;;;0.70;0.30;;;;;;;7.16;64.06;101530.75;4908515;29;20087;-81
2022/04/24 01:24:27;;;;;;;1.42;0.22;;;;;;;7.27;64.43;101539.31;4872897;29;20128;-82
2022/04/24 01:26:53;;;;;;;1.30;0.30;;;;;;;7.28;64.22;101545.50;4868824;29;20025;-81
2022/04/24 01:29:19;;;;;;;3.42;1.10;;;;;;;7.21;64.46;101550.66;4880210;29;20040;-82
2022/04/24 01:31:48;;;;;;;0.52;0.20;;;;;;;7.27;64.52;101550.03;4857692;29;20029;-82
2022/04/24 01:34:14;;;;;;;1.17;0.30;;;;;;;7.17;64.79;101551.97;4888541;29;20449;-82
2022/04/24 01:36:40;;;;;;;2.80;0.30;;;;;;;7.06;65.19;101521.00;4889389;29;20025;-82
2022/04/24 01:39:05;;;;;;;0.68;0.20;;;;;;;7.10;65.50;101526.03;4889791;29;20592;-81
2022/04/24 01:41:31;;;;;;;0.47;0.20;;;;;;;7.24;65.98;101557.53;4890950;29;20032;-82
2022/04/24 01:43:58;;;;;;;0.60;0.20;;;;;;;7.25;66.75;101556.53;4876867;29;20029;-82
2022/04/24 01:46:23;;;;;;;0.30;0.20;;;;;;;7.03;66.36;101544.56;4908492;29;20056;-83
2022/04/24 01:48:49;;;;;;;0.55;0.20;;;;;;;7.11;66.38;101552.63;4909075;29;20039;-82
2022/04/24 01:51:15;;;;;;;0.30;0.20;;;;;;;6.92;65.82;101526.94;4891406;29;20041;-81
2022/04/24 01:53:41;;;;;;;0.50;0.28;;;;;;;7.06;65.36;101550.41;4889927;29;20025;-80
2022/04/24 01:56:07;;;;;;;0.25;0.20;;;;;;;6.99;65.53;101557.41;4890061;29;20043;-82
2022/04/24 01:58:34;;;;;;;0.57;0.20;;;;;;;7.05;65.04;101548.75;4887820;29;20025;-81
2022/04/24 02:00:59;;;;;;;1.30;0.20;;;;;;;7.02;65.06;101534.84;4873513;29;20361;-81
2022/04/24 02:03:26;;;;;;;0.35;0.20;;;;;;;6.97;65.07;101548.69;4894188;29;20033;-82
2022/04/24 02:05:52;;;;;;;0.40;0.20;;;;;;;6.78;64.95;101506.91;4891138;29;20043;-81
2022/04/24 02:08:17;;;;;;;1.98;0.32;;;;;;;7.01;65.10;101543.84;4904573;29;20052;-81
2022/04/24 02:10:42;;;;;;;0.50;0.32;;;;;;;6.92;65.43;101545.66;4889389;29;20041;-82
2022/04/24 02:13:08;;;;;;;0.52;0.20;;;;;;;6.94;65.41;101545.47;4903962;29;20087;-83
2022/04/24 02:15:34;;;;;;;0.70;0.30;;;;;;;6.91;65.73;101538.59;4907822;29;20032;-81
2022/04/24 02:18:00;;;;;;;0.77;0.30;;;;;;;6.62;65.78;101497.94;4923786;29;20029;-82
2022/04/24 02:20:26;;;;;;;0.93;0.10;;;;;;;6.69;65.89;101521.25;4915567;29;20091;-81
2022/04/24 02:22:51;;;;;;;0.30;0.20;;;;;;;6.84;65.63;101537.56;4886884;29;20025;-81
2022/04/24 02:25:20;;;;;;;0.50;0.20;;;;;;;6.83;66.17;101534.03;4889956;29;20043;-82
2022/04/24 02:27:45;;;;;;;0.43;0.20;;;;;;;6.80;66.39;101541.56;4904808;29;20037;-81
2022/04/24 02:30:10;;;;;;;1.00;0.20;;;;;;;6.57;66.90;101531.34;4902452;29;20029;-82
2022/04/24 02:32:36;;;;;;;0.28;0.10;;;;;;;6.64;67.16;101542.25;4872526;29;20041;-81
2022/04/24 02:35:02;;;;;;;0.28;0.20;;;;;;;6.68;67.29;101540.94;4886324;29;20112;-82
2022/04/24 02:37:27;;;;;;;1.65;0.30;;;;;;;6.58;67.51;101538.38;4874655;29;20045;-82
2022/04/24 02:39:53;;;;;;;0.28;0.20;;;;;;;6.65;67.07;101538.59;4898015;29;20036;-82
2022/04/24 02:42:19;;;;;;;0.77;0.30;;;;;;;6.62;68.05;101533.53;4904321;29;20033;-82
2022/04/24 02:44:44;;;;;;;0.90;0.22;;;;;;;6.49;68.45;101542.00;4922391;29;20127;-82
2022/04/24 02:47:10;;;;;;;0.15;0.10;;;;;;;6.48;67.98;101510.03;4892001;29;20055;-82
2022/04/24 02:49:36;;;;;;;0.75;0.20;;;;;;;6.41;68.62;101520.50;4907281;29;20028;-82
2022/04/24 02:52:02;;;;;;;0.50;0.20;;;;;;;6.22;69.22;101521.50;4888636;29;20029;-82
2022/04/24 02:54:27;;;;;;;1.40;0.20;;;;;;;6.38;69.16;101536.88;4889513;29;20021;-82
2022/04/24 02:56:52;;;;;;;0.38;0.20;;;;;;;6.33;69.83;101539.16;4885903;29;20043;-82
2022/04/24 02:59:18;;;;;;;0.70;0.30;;;;;;;6.05;69.42;101487.63;4912778;29;20035;-82
2022/04/24 03:01:45;;;;;;;0.55;0.20;;;;;;;6.39;69.60;101527.00;4892330;29;20471;-81
2022/04/24 03:04:11;;;;;;;0.75;0.20;;;;;;;6.33;69.65;101528.47;4906491;29;20609;-81
2022/04/24 03:06:36;;;;;;;0.55;0.25;;;;;;;6.00;70.07;101476.56;4891787;29;20081;-81
2022/04/24 03:09:02;;;;;;;0.90;0.20;;;;;;;6.29;70.11;101537.78;4890722;29;20071;-81
2022/04/24 03:11:27;;;;;;;0.40;0.20;;;;;;;6.18;69.98;101501.44;4893191;29;20054;-82
2022/04/24 03:13:52;;;;;;;0.40;0.20;;;;;;;6.26;70.13;101538.09;4889841;29;20444;-81
2022/04/24 03:16:17;;;;;;;0.75;0.13;;;;;;;6.32;70.04;101526.78;4908782;29;20037;-81
2022/04/24 03:18:43;;;;;;;0.10;0.10;;;;;;;6.21;70.28;101522.50;4913975;29;20028;-82
2022/04/24 03:21:08;;;;;;;0.10;0.10;;;;;;;6.13;70.99;101516.28;4921514;29;20119;-82
2022/04/24 03:23:34;;;;;;;0.45;0.22;;;;;;;6.02;71.45;101511.97;4873917;29;20124;-82
2022/04/24 03:25:59;;;;;;;0.65;0.20;;;;;;;5.98;71.47;101510.59;4903666;29;20033;-81
2022/04/24 03:28:24;;;;;;;0.52;0.28;;;;;;;6.04;71.49;101518.84;4887813;29;20024;-82
2022/04/24 03:30:50;;;;;;;1.67;0.32;;;;;;;6.04;72.26;101524.19;4892408;29;20032;-81
2022/04/24 03:33:15;;;;;;;2.25;0.30;;;;;;;6.08;72.21;101516.72;4896507;29;20463;-81
2022/04/24 03:35:41;;;;;;;0.40;0.20;;;;;;;5.99;72.46;101514.94;4873167;29;20146;-82
2022/04/24 03:38:06;;;;;;;0.38;0.20;;;;;;;6.02;72.27;101517.31;4890312;29;20069;-82
2022/04/24 03:40:32;;;;;;;0.50;0.25;;;;;;;5.91;72.61;101510.34;4888900;29;20037;-82
2022/04/24 03:42:58;;;;;;;0.40;0.20;;;;;;;5.83;73.18;101508.44;4886719;29;20028;-82
2022/04/24 03:45:24;;;;;;;0.80;0.20;;;;;;;5.79;73.53;101503.53;4872758;29;20041;-80
2022/04/24 03:47:51;;;;;;;0.40;0.15;;;;;;;5.84;73.55;101511.94;4873486;29;20061;-82
2022/04/24 03:50:19;;;;;;;1.00;0.50;;;;;;;5.69;73.76;101481.38;4888473;29;20052;-81
2022/04/24 03:52:45;;;;;;;1.15;0.20;;;;;;;5.74;74.09;101511.16;4889879;29;20061;-82
2022/04/24 03:55:10;;;;;;;0.30;0.20;;;;;;;5.78;74.96;101517.88;4886744;29;20473;-81
2022/04/24 03:57:35;;;;;;;0.30;0.17;;;;;;;5.63;74.66;101499.69;4885073;29;20040;-81
2022/04/24 04:00:01;;;;;;;0.40;0.30;;;;;;;5.80;74.75;101506.06;4887344;29;20025;-82
2022/04/24 04:02:26;;;;;;;0.47;0.22;;;;;;;5.59;74.96;101468.09;4888008;29;20037;-82
2022/04/24 04:04:52;;;;;;;0.55;0.38;;;;;;;5.73;75.10;101496.97;4897020;29;20075;-81
2022/04/24 04:07:17;;;;;;;0.70;0.30;;;;;;;5.78;75.52;101507.19;4920290;29;20029;-81
2022/04/24 04:09:42;;;;;;;0.65;0.20;;;;;;;5.81;75.49;101499.72;4906284;29;20081;-82
2022/04/24 04:12:09;;;;;;;0.22;0.20;;;;;;;5.93;75.15;101502.19;4906215;29;20037;-82
2022/04/24 04:14:34;;;;;;;0.55;0.20;;;;;;;5.79;75.63;101487.50;4905682;29;20085;-82
2022/04/24 04:16:59;;;;;;;0.47;0.20;;;;;;;5.83;75.08;101499.59;4889498;29;20029;-82
2022/04/24 04:19:25;;;;;;;0.30;0.17;;;;;;;5.88;75.44;101505.28;4887192;29;20438;-81
2022/04/24 04:21:50;;;;;;;0.50;0.30;;;;;;;5.82;75.37;101500.56;4888599;29;20040;-81
2022/04/24 04:24:16;;;;;;;1.23;0.30;;;;;;;5.79;75.55;101492.84;4876754;29;20092;-82
2022/04/24 04:26:41;;;;;;;0.20;0.20;;;;;;;5.85;75.99;101502.91;4894109;29;20061;-81
2022/04/24 04:29:07;;;;;;;0.60;0.43;;;;;;;5.68;76.17;101487.72;4894156;29;20045;-82
2022/04/24 04:31:33;;;;;;;0.47;0.20;;;;;;;5.64;75.86;101482.69;4897924;29;20029;-82
2022/04/24 04:33:58;;;;;;;0.40;0.20;;;;;;;5.77;76.26;101514.38;4892679;29;20091;-82
2022/04/24 04:36:23;;;;;;;0.75;0.30;;;;;;;5.60;76.50;101473.31;4897278;29;20032;-82
2022/04/24 04:38:48;;;;;;;0.45;0.30;;;;;;;5.73;76.97;101509.47;4927493;29;20140;-82
2022/04/24 04:41:14;;;;;;;1.13;0.35;;;;;;;5.73;77.41;101509.47;4923194;29;20056;-81
2022/04/24 04:43:39;;;;;;;0.40;0.22;;;;;;;5.76;76.92;101515.38;4896870;29;20048;-81
2022/04/24 04:46:04;;;;;;;0.40;0.20;;;;;;;5.81;77.40;101512.22;4892809;29;20413;-81
2022/04/24 04:48:31;;;;;;;0.30;0.20;;;;;;;5.68;77.91;101501.06;4892157;29;20048;-82
2022/04/24 04:50:56;;;;;;;1.35;0.38;;;;;;;5.82;77.52;101505.88;4891482;29;20029;-81
2022/04/24 04:53:22;;;;;;;0.70;0.30;;;;;;;5.81;77.37;101498.88;4891963;29;20017;-81
2022/04/24 04:55:48;;;;;;;1.60;0.63;;;;;;;5.79;77.61;101516.88;4891781;29;20630;-81
2022/04/24 04:58:13;;;;;;;0.30;0.20;;;;;;;5.92;77.49;101517.34;4893873;29;20047;-82
2022/04/24 05:00:39;;;;;;;1.50;0.30;;;;;;;5.91;76.93;101496.97;4909997;29;20036;-82
2022/04/24 05:03:05;;;;;;;0.25;0.20;;;;;;;5.72;77.78;101481.91;4891398;29;20036;-81
2022/04/24 05:05:30;;;;;;;0.30;0.20;;;;;;;6.10;76.87;101515.56;4892233;29;20032;-82
2022/04/24 05:07:57;;;;;;;0.55;0.30;;;;;;;5.99;77.78;101510.44;4872990;29;20049;-81
2022/04/24 05:10:22;;;;;;;0.57;0.30;;;;;;;6.00;77.58;101476.56;4870774;29;20041;-81
2022/04/24 05:12:47;;;;;;;1.25;0.40;;;;;;;6.42;75.70;101507.97;4887512;29;20037;-81
2022/04/24 05:15:14;;;;;;;1.38;0.38;;;;;;;6.24;77.34;101513.34;4897755;29;20123;-82
2022/04/24 05:17:40;;;;;;;0.43;0.20;;;;;;;6.18;78.30;101505.94;4894047;29;20048;-81
2022/04/24 05:20:09;;;;;;;0.88;0.35;;;;;;;6.17;78.31;101526.50;4908393;29;20033;-81
2022/04/24 05:22:34;;;;;;;1.85;0.38;;;;;;;6.02;78.31;101515.47;4897530;29;20036;-82
2022/04/24 05:24:59;;;;;;;1.27;0.20;;;;;;;6.13;78.00;101517.09;4896685;29;20040;-81
2022/04/24 05:27:26;;;;;;;0.57;0.40;;;;;;;6.04;78.21;101496.63;4896222;29;20033;-81
2022/04/24 05:29:51;;;;;;;3.20;0.50;;;;;;;6.26;78.09;101528.25;4908152;29;20040;-82
2022/04/24 05:32:16;;;;;;;1.83;0.45;;;;;;;6.09;78.93;101523.72;4898456;29;20097;-82
2022/04/24 05:34:43;;;;;;;0.43;0.30;;;;;;;5.89;77.89;101473.09;4909855;29;20021;-82
2022/04/24 05:37:09;;;;;;;0.45;0.30;;;;;;;6.10;77.89;101496.03;4895460;29;20060;-82
2022/04/24 05:39:35;;;;;;;2.45;0.55;;;;;;;6.23;78.37;101517.88;4888457;29;20029;-83
2022/04/24 05:42:00;;;;;;;0.65;0.32;;;;;;;6.19;77.74;101494.25;4903734;29;20020;-81
2022/04/24 05:59:59;;;;;;;0.93;0.50;;;;;;;6.63;75.34;101408.72;5805267;23;20072;-83
2022/04/24 06:05:00;;;;;;;3.65;0.40;;;;;;;7.47;74.67;101534.56;5429777;23;20036;-83
2022/04/24 06:07:25;;;;;;;0.73;0.43;;;;;;;7.36;74.69;101532.19;4923299;29;20059;-83
2022/04/24 06:09:52;;;;;;;1.77;0.40;;;;;;;7.34;75.29;101538.69;4922535;29;20212;-83
2022/04/24 06:12:18;;;;;;;0.70;0.40;;;;;;;7.14;75.71;101527.38;4921257;29;20035;-82
2022/04/24 06:14:43;;;;;;;1.35;0.47;;;;;;;7.09;75.91;101535.06;4921400;29;20017;-83
2022/04/24 06:17:08;;;;;;;0.57;0.30;;;;;;;7.04;75.96;101522.97;4906190;29;20057;-83
2022/04/24 06:19:34;;;;;;;0.40;0.30;;;;;;;7.29;75.11;101545.38;4919730;29;20025;-80
2022/04/24 06:27:10;;;;;;;0.77;0.38;;;;;;;7.53;75.30;101528.56;5623181;23;20065;-82
2022/04/24 06:32:10;;;;;;;1.60;0.70;;;;;;;6.87;74.87;101418.72;5374074;23;20092;-82
2022/04/24 06:34:36;;;;;;;0.47;0.40;;;;;;;7.79;74.14;101530.34;4920102;29;20109;-82
2022/04/24 06:37:02;;;;;;;0.82;0.40;;;;;;;7.88;73.80;101505.25;4916927;29;20044;-81
2022/04/24 06:39:27;;;;;;;1.33;0.50;;;;;;;7.86;73.60;101519.81;4919774;29;20104;-83
2022/04/24 06:41:52;;;;;;;1.85;0.47;;;;;;;8.03;73.40;101524.19;4900394;29;20037;-82
2022/04/24 06:44:18;;;;;;;2.13;0.50;;;;;;;8.14;73.05;101507.78;4898582;29;20065;-82
2022/04/24 06:46:46;;;;;;;1.15;0.50;;;;;;;8.47;71.66;101513.19;4884522;29;20089;-83
2022/04/24 06:49:12;;;;;;;1.27;0.50;;;;;;;8.84;71.34;101507.31;4886193;29;20033;-82
2022/04/24 06:51:37;;;;;;;1.73;0.80;;;;;;;8.74;70.16;101495.06;4886514;29;20065;-80
2022/04/24 06:54:02;;;;;;;1.15;0.43;;;;;;;9.19;69.99;101507.88;4881334;29;20096;-80
2022/04/24 06:56:28;;;;;;;2.42;0.50;;;;;;;9.02;69.54;101495.53;4868895;29;20101;-82
2022/04/24 06:58:53;;;;;;;0.90;0.40;;;;;;;9.14;69.44;101483.41;4882478;29;20048;-83
2022/04/24 07:01:21;;;;;;;1.00;0.55;;;;;;;9.55;68.31;101510.09;4855803;29;20045;-82
2022/04/24 07:03:46;;;;;;;2.60;0.80;;;;;;;9.72;66.77;101503.63;4861964;29;20124;-81
2022/04/24 07:06:12;;;;;;;0.88;0.57;;;;;;;9.79;66.89;101477.72;4888333;29;20455;-83
2022/04/24 07:08:38;;;;;;;1.27;0.60;;;;;;;9.76;66.67;101461.94;4872683;29;20037;-82
2022/04/24 07:11:03;;;;;;;3.10;0.65;;;;;;;9.91;67.09;101480.00;4888571;29;20045;-82
2022/04/24 07:13:28;;;;;;;2.55;0.68;;;;;;;9.70;67.89;101467.19;4890649;29;20069;-82
2022/04/24 07:15:54;;;;;;;1.10;0.57;;;;;;;9.82;66.86;101479.22;4880745;29;20085;-82
2022/04/24 07:18:20;;;;;;;2.25;0.70;;;;;;;9.80;67.46;101460.59;4870506;29;20029;-83
2022/04/24 07:20:45;;;;;;;1.38;0.70;;;;;;;9.71;67.48;101480.47;4872234;29;20092;-82
2022/04/24 07:23:11;;;;;;;1.35;0.70;;;;;;;9.90;67.54;101479.19;4892720;29;20037;-80
2022/04/24 07:25:43;;;;;;;1.55;0.80;;;;;;;10.16;65.97;101486.88;4906880;29;20025;-80
2022/04/24 07:28:13;;;;;;;2.17;1.00;;;;;;;9.98;66.18;101481.78;4910362;29;20027;-81
2022/04/24 07:30:39;;;;;;;1.40;0.90;;;;;;;9.83;66.69;101479.06;4898688;29;20029;-81
2022/04/24 07:33:04;;;;;;;1.55;0.93;;;;;;;9.64;67.49;101490.25;4870635;29;20387;-81
2022/04/24 07:35:32;;;;;;;2.13;0.90;;;;;;;9.66;67.79;101498.94;4889538;29;20037;-83
2022/04/24 07:37:58;;;;;;;1.00;0.80;;;;;;;9.97;65.97;101482.81;4893192;29;20029;-82
2022/04/24 07:40:26;;;;;;;3.47;0.90;;;;;;;10.41;65.93;101500.16;4893050;29;20044;-82
2022/04/24 07:42:55;;;;;;;2.65;1.20;;;;;;;10.38;65.62;101505.91;4890141;29;20033;-82
2022/04/24 07:45:21;;;;;;;2.97;1.00;;;;;;;10.54;65.26;101495.84;4890564;29;20449;-82
2022/04/24 07:47:48;;;;;;;1.85;1.10;;;;;;;10.56;64.84;101482.19;4891682;29;20092;-82
2022/04/24 07:50:15;;;;;;;2.17;0.98;;;;;;;10.04;65.10;101461.44;4891362;29;20025;-81
2022/04/24 07:52:41;;;;;;;2.70;1.40;;;;;;;10.35;64.89;101501.72;4892106;29;20029;-82
2022/04/24 07:55:06;;;;;;;1.35;0.90;;;;;;;10.06;63.90;101465.59;4892778;29;20067;-83
2022/04/24 07:57:32;;;;;;;1.95;0.85;;;;;;;10.26;64.04;101468.66;4913145;29;20036;-82
2022/04/24 08:00:00;;;;;;;3.00;1.10;;;;;;;10.78;62.84;101485.84;4915190;29;20028;-82
2022/04/24 08:02:25;;;;;;;1.60;0.85;;;;;;;10.88;63.57;101480.22;4913155;29;20073;-83
2022/04/24 08:04:51;;;;;;;2.17;0.90;;;;;;;10.16;63.72;101483.34;4879570;29;20037;-82
2022/04/24 08:07:22;;;;;;;1.27;0.80;;;;;;;9.65;66.64;101481.16;4911045;29;20065;-82
2022/04/24 08:09:47;;;;;;;1.38;1.00;;;;;;;9.45;67.93;101496.03;4893007;29;20066;-82
2022/04/24 08:12:13;;;;;;;2.45;0.90;;;;;;;9.50;68.20;101485.59;4896003;29;20033;-83
2022/04/24 08:14:38;;;;;;;1.42;0.88;;;;;;;9.28;68.62;101480.00;4895733;29;20124;-82
2022/04/24 08:17:03;;;;;;;1.58;0.90;;;;;;;9.53;69.22;101490.63;4901500;29;20028;-82
2022/04/24 08:19:29;;;;;;;3.83;1.10;;;;;;;9.76;69.07;101491.50;4896811;29;20052;-82
2022/04/24 08:21:54;;;;;;;1.77;0.88;;;;;;;9.84;68.70;101479.88;4896043;29;20057;-82
2022/04/24 08:24:19;;;;;;;1.65;0.80;;;;;;;10.00;67.93;101490.53;4873649;29;20033;-82
2022/04/24 08:26:45;;;;;;;2.00;1.00;;;;;;;10.22;67.42;101470.00;4883068;29;20120;-81
2022/04/24 08:29:10;;;;;;;2.80;0.90;;;;;;;10.41;67.06;101484.84;4900865;29;20042;-84
2022/04/24 08:31:35;;;;;;;1.77;1.10;;;;;;;9.86;66.29;101384.59;5091696;23;20056;-83
2022/04/24 08:34:01;;;;;;;2.38;1.00;;;;;;;9.76;66.08;101386.69;4891360;29;20046;-81
2022/04/24 08:36:27;;;;;;;2.22;0.90;;;;;;;9.38;65.33;101305.19;4897940;29;20033;-83
2022/04/24 08:38:52;;;;;;;1.50;0.90;;;;;;;9.04;65.69;101303.75;4896493;29;20435;-83
2022/04/24 08:41:23;;;;;;;1.35;1.00;;;;;;;9.79;65.57;101386.31;4895598;29;20029;-82
2022/04/24 08:43:49;;;;;;;1.58;0.90;;;;;;;8.99;65.56;101303.44;4895276;29;20055;-81
2022/04/24 08:46:14;;;;;;;2.78;0.95;;;;;;;10.09;65.37;101476.00;4895900;29;20033;-82
2022/04/24 08:48:45;;;;;;;2.15;1.10;;;;;;;10.39;64.62;101448.38;4895447;29;20060;-82
2022/04/24 08:51:11;;;;;;;2.35;1.02;;;;;;;10.63;63.60;101461.63;4896870;29;20041;-82
2022/04/24 08:53:38;;;;;;;1.23;0.90;;;;;;;10.92;62.85;101465.34;4890094;29;20025;-81
2022/04/24 08:56:04;;;;;;;1.38;0.80;;;;;;;11.08;61.98;101480.50;4900589;29;20044;-82
2022/04/24 08:58:31;;;;;;;1.63;0.90;;;;;;;10.93;63.83;101469.72;4909083;29;20025;-82
2022/04/24 09:00:56;;;;;;;1.30;0.80;;;;;;;10.77;64.00;101468.88;4892771;29;20033;-81
2022/04/24 09:03:21;;;;;;;2.03;1.00;;;;;;;11.08;63.94;101470.56;4895176;29;20048;-83
2022/04/24 09:05:47;;;;;;;1.55;0.90;;;;;;;11.04;63.32;101488.94;4891318;29;20033;-82
2022/04/24 09:08:13;;;;;;;4.45;1.00;;;;;;;10.89;63.61;101484.56;4867774;29;20097;-83
2022/04/24 09:10:55;;;;;;;2.28;1.00;;;;;;;10.76;63.08;101491.44;4896593;29;20052;-81
2022/04/24 09:16:37;;;;;;;3.28;1.38;;;;;;;11.07;63.90;101468.88;4916427;29;20120;-80
2022/04/24 09:19:04;;;;;;;12.25;1.73;;;;;;;11.27;62.54;101461.91;4894079;29;20124;-81
2022/04/24 09:21:30;;;;;;;2.03;1.10;;;;;;;11.08;62.67;101464.34;4885000;29;20044;-80
2022/04/24 09:24:00;;;;;;;3.38;1.10;;;;;;;11.12;63.47;101471.84;4914125;29;20024;-82
2022/04/24 09:26:25;;;;;;;2.53;1.00;;;;;;;11.62;61.64;101459.44;4918866;29;20029;-82
2022/04/24 09:28:51;;;;;;;2.25;0.90;;;;;;;11.57;61.11;101461.84;4916895;29;20044;-82
2022/04/24 09:31:16;;;;;;;1.42;0.90;;;;;;;11.39;62.41;101466.81;4908449;29;20075;-81
2022/04/24 09:33:43;;;;;;;2.40;1.10;;;;;;;11.08;63.26;101475.94;4912200;29;20041;-82
2022/04/24 09:36:10;;;;;;;1.90;1.25;;;;;;;10.87;64.25;101474.00;4919093;29;20049;-82
2022/04/24 09:38:45;;;;;;;1.92;1.10;;;;;;;10.81;64.60;101442.41;4891432;29;20020;-82
2022/04/24 09:41:19;;;;;;;3.97;1.20;;;;;;;10.73;63.41;101440.66;4912969;29;20039;-81
2022/04/24 09:43:45;;;;;;;1.57;1.10;;;;;;;11.17;62.69;101458.66;4909604;29;20060;-81
2022/04/24 09:46:10;;;;;;;2.08;1.23;;;;;;;11.03;61.72;101451.44;4892567;29;20079;-81
2022/04/24 09:48:35;;;;;;;6.25;1.30;;;;;;;11.19;61.47;101439.59;4890072;29;20123;-82
2022/04/24 09:51:01;;;;;;;4.00;1.20;;;;;;;11.48;60.30;101453.03;4871539;29;20032;-79
2022/04/24 09:53:28;;;;;;;1.52;1.15;;;;;;;11.58;59.74;101454.59;4882100;29;20033;-80
2022/04/24 09:55:55;;;;;;;1.83;0.95;;;;;;;11.52;58.99;101443.56;4882025;29;20380;-79
2022/04/24 09:58:21;;;;;;;1.88;1.10;;;;;;;11.31;59.60;101464.22;4879354;29;20064;-79
2022/04/24 10:00:47;;;;;;;1.73;1.10;;;;;;;11.46;59.05;101448.88;4877530;29;20075;-79
2022/04/24 10:03:15;;;;;;;1.83;1.00;;;;;;;11.39;59.20;101450.63;4889608;29;20116;-80
2022/04/24 10:05:43;;;;;;;1.20;1.00;;;;;;;11.65;57.95;101442.03;4885255;29;20089;-81
2022/04/24 10:08:09;;;;;;;1.30;1.00;;;;;;;11.76;57.40;101450.47;4884108;29;20084;-81
2022/04/24 10:10:35;;;;;;;2.00;1.10;;;;;;;11.84;57.24;101432.50;4887174;29;20036;-79
2022/04/24 10:13:04;;;;;;;2.80;1.02;;;;;;;12.06;57.13;101447.69;4882161;29;20029;-79
2022/04/24 10:15:32;;;;;;;3.22;1.02;;;;;;;11.61;57.18;101446.97;4867119;29;20029;-81
2022/04/24 10:18:20;;;;;;;1.88;1.02;;;;;;;11.82;58.49;101461.50;4883605;29;20055;-82
2022/04/24 10:21:14;;;;;;;2.72;1.00;;;;;;;12.03;57.92;101466.94;4898295;29;20029;-80
2022/04/24 10:23:39;;;;;;;1.80;1.00;;;;;;;11.66;57.62;101449.09;4890122;29;20029;-81
2022/04/24 10:26:25;;;;;;;2.45;1.23;;;;;;;11.79;58.60;101448.38;4875926;29;20013;-82
2022/04/24 10:29:02;;;;;;;2.60;1.15;;;;;;;11.97;56.96;101455.06;4886691;29;20041;-79
2022/04/24 10:31:28;;;;;;;3.30;1.27;;;;;;;11.77;56.40;101443.19;4881672;29;20049;-81
2022/04/24 10:33:55;;;;;;;1.52;1.02;;;;;;;11.72;56.56;101430.31;4884551;29;20025;-81
2022/04/24 10:36:21;;;;;;;1.60;0.98;;;;;;;11.77;55.96;101451.28;4879283;29;20062;-82
2022/04/24 10:38:48;;;;;;;3.90;1.00;;;;;;;11.72;56.21;101457.28;4886554;29;20021;-80
2022/04/24 10:41:18;;;;;;;3.30;1.10;;;;;;;11.74;56.01;101444.41;4879393;29;20033;-80
2022/04/24 10:43:48;;;;;;;2.42;1.15;;;;;;;11.79;55.58;101421.44;4879039;29;20142;-79
2022/04/24 10:46:26;;;;;;;2.20;1.08;;;;;;;11.79;56.97;101437.59;4880430;29;20515;-78
2022/04/24 10:48:53;;;;;;;2.28;0.98;;;;;;;12.00;56.18;101437.66;4878867;29;20040;-80
2022/04/24 10:51:30;;;;;;;1.10;0.90;;;;;;;12.13;56.68;101408.09;4881102;29;20060;-80
2022/04/24 10:54:01;;;;;;;2.15;1.00;;;;;;;12.39;55.14;101420.16;4880866;29;20448;-79
2022/04/24 10:56:28;;;;;;;1.00;0.90;;;;;;;12.20;55.57;101424.34;4890758;29;20043;-81
2022/04/24 10:59:12;;;;;;;4.80;1.13;;;;;;;12.19;55.84;101430.78;4883531;29;20073;-80
2022/04/24 11:01:42;;;;;;;1.92;1.08;;;;;;;12.36;54.45;101407.03;4880857;29;20037;-79
2022/04/24 11:04:11;;;;;;;1.40;0.88;;;;;;;12.65;53.54;101428.44;4878761;29;20405;-79
2022/04/24 11:06:37;;;;;;;1.92;1.05;;;;;;;12.32;53.09;101387.72;4879428;29;20036;-79
2022/04/24 11:09:11;;;;;;;1.67;1.00;;;;;;;12.46;53.13;101410.22;4878444;29;20020;-79
2022/04/24 11:11:58;;;;;;;0.98;0.85;;;;;;;12.42;53.82;101426.00;4893393;29;20234;-79
2022/04/24 11:14:26;;;;;;;2.10;1.10;;;;;;;12.32;54.36;101432.75;4879565;29;20044;-79
2022/04/24 11:16:54;;;;;;;1.40;0.93;;;;;;;12.61;54.81;101421.75;4880271;29;20033;-81
2022/04/24 11:19:25;;;;;;;1.00;0.90;;;;;;;12.77;55.03;101419.78;4894721;29;20043;-78
2022/04/24 11:21:59;;;;;;;2.50;1.13;;;;;;;12.66;53.00;101422.00;4877495;29;20067;-79
2022/04/24 11:24:32;;;;;;;1.75;1.15;;;;;;;12.48;54.96;101391.13;4878672;29;20040;-79
2022/04/24 11:27:03;;;;;;;2.35;1.10;;;;;;;12.97;54.15;101417.19;4882259;29;20035;-79
2022/04/24 11:29:28;;;;;;;1.40;0.90;;;;;;;12.73;53.57;101415.81;4888850;29;20029;-79
2022/04/24 11:31:55;;;;;;;2.25;1.10;;;;;;;12.51;54.52;101413.16;4883891;29;20107;-79
2022/04/24 11:34:22;;;;;;;2.88;0.85;;;;;;;12.71;52.98;101418.69;4892102;29;20031;-79
2022/04/24 11:36:49;;;;;;;1.40;0.90;;;;;;;12.58;53.32;101397.88;4886712;29;20176;-78
2022/04/24 11:39:16;;;;;;;1.40;0.82;;;;;;;12.93;53.43;101389.75;4884874;29;20677;-78
2022/04/24 11:41:46;;;;;;;1.95;1.10;;;;;;;13.01;53.49;101413.88;4884976;29;20120;-79
2022/04/24 11:52:38;;;;;;;1.70;0.95;;;;;;;13.14;50.26;101386.09;4881937;29;20368;-80
2022/04/24 11:55:13;;;;;;;1.40;0.73;;;;;;;12.99;50.02;101410.56;4885621;29;20036;-79
2022/04/24 11:57:40;;;;;;;;;;;;;;;13.26;49.91;101408.84;4885421;29;20139;-79
2022/04/24 12:00:09;;;;;;;1.13;0.80;;;;;;;13.42;48.00;101379.78;4885601;29;19987;-79
2022/04/24 12:02:35;;;;;;;0.90;0.80;;;;;;;13.19;45.92;101394.44;4879583;29;20032;-79
2022/04/24 12:05:00;;;;;;;1.13;0.65;;;;;;;12.97;45.97;101393.69;4883304;29;20052;-78
2022/04/24 12:07:33;;;;;;;0.85;0.70;;;;;;;13.01;45.85;101377.94;4884805;29;20459;-78